Wetterdaten: Woche 29.06.09 - 05.07.09 (KW27)
Datum Zeit Temp. A. Feuchte A. Luftdruck Regen Wind Richtung Taupunkt Windchill Windben
29.06.2009 00:00 18,1 C 92 % 1013,4 hPa 0,0 l/m 0,1 km/h N 16,8 C 18,1 C 0,8 km/h
29.06.2009 01:00 18,3 C 92 % 1013,3 hPa 0,0 l/m 0,2 km/h N 16,9 C 18,3 C 1,6 km/h
29.06.2009 02:00 18,1 C 92 % 1013,2 hPa 0,0 l/m 0,2 km/h N 16,7 C 18,1 C 1,2 km/h
29.06.2009 03:00 17,4 C 92 % 1013,3 hPa 0,0 l/m 0,0 km/h N 16,1 C 17,4 C 0,0 km/h
29.06.2009 04:00 17,6 C 93 % 1013,6 hPa 0,0 l/m 0,0 km/h N 16,5 C 17,6 C 1,2 km/h
29.06.2009 05:00 17,9 C 92 % 1014,0 hPa 0,0 l/m 0,1 km/h N 16,6 C 17,9 C 1,6 km/h
29.06.2009 06:00 18,2 C 92 % 1014,3 hPa 0,0 l/m 0,6 km/h N 16,9 C 18,2 C 3,6 km/h
29.06.2009 07:00 18,5 C 91 % 1014,7 hPa 0,0 l/m 0,4 km/h N 17,0 C 18,5 C 2,8 km/h
29.06.2009 08:00 19,5 C 88 % 1014,8 hPa 0,0 l/m 1,1 km/h NO 17,4 C 19,5 C 4,8 km/h
29.06.2009 09:00 20,2 C 85 % 1014,9 hPa 0,0 l/m 2,0 km/h N-NW 17,6 C 20,2 C 6,4 km/h
29.06.2009 10:00 20,9 C 83 % 1015,1 hPa 0,0 l/m 2,8 km/h N-NW 17,8 C 20,9 C 8,1 km/h
29.06.2009 11:00 22,1 C 79 % 1015,3 hPa 0,0 l/m 3,1 km/h N-NO 18,2 C 22,1 C 9,3 km/h
29.06.2009 12:00 23,1 C 74 % 1014,9 hPa 0,0 l/m 3,6 km/h N-NO 18,2 C 23,1 C 10,5 km/h
29.06.2009 13:00 23,9 C 70 % 1014,4 hPa 0,0 l/m 2,4 km/h N 18,1 C 23,9 C 7,2 km/h
29.06.2009 14:00 24,9 C 66 % 1013,9 hPa 0,0 l/m 2,6 km/h N-NW 18,2 C 24,9 C 9,3 km/h
29.06.2009 15:00 25,7 C 65 % 1013,6 hPa 0,0 l/m 2,7 km/h NW 18,6 C 25,7 C 9,6 km/h
29.06.2009 16:00 24,1 C 72 % 1013,8 hPa 2,2 l/m 4,3 km/h N-NW 18,6 C 24,1 C 10,1 km/h
29.06.2009 17:00 22,7 C 76 % 1014,0 hPa 0,0 l/m 3,4 km/h NO 18,2 C 22,7 C 9,7 km/h
29.06.2009 18:00 21,8 C 76 % 1015,0 hPa 0,0 l/m 3,2 km/h N-NO 17,4 C 21,8 C 9,7 km/h
29.06.2009 19:00 20,1 C 86 % 1015,2 hPa 0,6 l/m 0,2 km/h N 17,6 C 20,1 C 1,2 km/h
29.06.2009 20:00 19,7 C 87 % 1015,6 hPa 0,0 l/m 0,1 km/h N 17,5 C 19,7 C 1,2 km/h
29.06.2009 21:00 18,9 C 89 % 1015,5 hPa 0,0 l/m 0,0 km/h N 17,0 C 18,9 C 0,4 km/h
29.06.2009 22:00 18,1 C 91 % 1015,8 hPa 0,0 l/m 0,0 km/h N 16,5 C 18,1 C 0,4 km/h
29.06.2009 23:00 18,1 C 91 % 1016,5 hPa 0,0 l/m 0,0 km/h N 16,6 C 18,1 C 0,4 km/h
30.06.2009 00:00 18,9 C 87 % 1016,4 hPa 0,0 l/m 0,1 km/h N 16,6 C 18,9 C 2,4 km/h
30.06.2009 01:00 18,9 C 85 % 1016,1 hPa 0,0 l/m 0,0 km/h N-NW 16,4 C 18,9 C 0,8 km/h
30.06.2009 02:00 19,2 C 84 % 1015,8 hPa 0,0 l/m 2,0 km/h N-NO 16,4 C 19,2 C 6,0 km/h
30.06.2009 03:00 19,0 C 85 % 1015,7 hPa 0,0 l/m 2,8 km/h NO 16,3 C 19,0 C 8,4 km/h
30.06.2009 04:00 18,8 C 86 % 1015,9 hPa 0,0 l/m 1,5 km/h NW 16,4 C 18,8 C 6,8 km/h
30.06.2009 05:00 18,2 C 88 % 1016,3 hPa 0,0 l/m 0,6 km/h NW 16,2 C 18,2 C 3,2 km/h
30.06.2009 06:00 18,5 C 88 % 1016,8 hPa 0,0 l/m 1,3 km/h N-NW 16,4 C 18,5 C 7,2 km/h
30.06.2009 07:00 19,6 C 85 % 1016,8 hPa 0,0 l/m 2,7 km/h N-NO 16,9 C 19,6 C 8,4 km/h
30.06.2009 08:00 20,4 C 82 % 1017,3 hPa 0,0 l/m 4,8 km/h N-NW 17,2 C 20,4 C 11,3 km/h
30.06.2009 09:00 21,1 C 81 % 1017,3 hPa 0,0 l/m 6,2 km/h N-NW 17,6 C 20,9 C 15,3 km/h
30.06.2009 10:00 22,4 C 78 % 1017,3 hPa 0,0 l/m 4,6 km/h NW 18,4 C 22,4 C 12,5 km/h
30.06.2009 11:00 23,8 C 73 % 1017,2 hPa 0,0 l/m 4,6 km/h NW 18,6 C 23,8 C 13,7 km/h
30.06.2009 12:00 25,0 C 69 % 1017,0 hPa 0,0 l/m 4,3 km/h N-NW 19,0 C 25,0 C 10,9 km/h
30.06.2009 13:00 25,7 C 65 % 1016,6 hPa 0,0 l/m 3,7 km/h N-NW 18,6 C 25,7 C 10,1 km/h
30.06.2009 14:00 26,8 C 63 % 1016,1 hPa 0,0 l/m 4,0 km/h N-NW 19,1 C 26,8 C 9,7 km/h
30.06.2009 15:00 27,4 C 59 % 1015,7 hPa 0,0 l/m 3,2 km/h SW 18,8 C 27,4 C 8,0 km/h
30.06.2009 16:00 27,4 C 59 % 1015,5 hPa 0,0 l/m 2,9 km/h N-NO 18,7 C 27,4 C 8,4 km/h
30.06.2009 17:00 27,1 C 58 % 1015,3 hPa 0,0 l/m 2,8 km/h NW 18,2 C 27,1 C 8,4 km/h
30.06.2009 18:00 26,6 C 60 % 1015,5 hPa 0,0 l/m 3,2 km/h N-NW 18,1 C 26,6 C 9,3 km/h
30.06.2009 19:00 26,1 C 63 % 1015,8 hPa 0,0 l/m 2,3 km/h N-NW 18,5 C 26,1 C 6,8 km/h
30.06.2009 20:00 23,2 C 74 % 1016,7 hPa 0,0 l/m 0,9 km/h O-SO 18,1 C 23,2 C 4,0 km/h
30.06.2009 21:00 21,6 C 84 % 1017,0 hPa 0,0 l/m 0,3 km/h N 18,8 C 21,6 C 2,8 km/h
30.06.2009 22:00 21,1 C 87 % 1017,3 hPa 0,0 l/m 1,0 km/h NW 18,8 C 21,1 C 4,4 km/h
30.06.2009 23:00 20,5 C 86 % 1017,4 hPa 0,0 l/m 0,3 km/h N 18,1 C 20,5 C 2,4 km/h
01.07.2009 00:00 20,0 C 86 % 1017,6 hPa 0,0 l/m 0,3 km/h N 17,5 C 20,0 C 2,0 km/h
01.07.2009 01:00 19,8 C 85 % 1017,7 hPa 0,0 l/m 0,4 km/h N 17,2 C 19,8 C 2,4 km/h
01.07.2009 02:00 19,2 C 87 % 1017,9 hPa 7,7 l/m 0,8 km/h N-NW 17,0 C 19,2 C 4,0 km/h
01.07.2009 03:00 18,5 C 90 % 1017,6 hPa 0,0 l/m 0,5 km/h NO 16,9 C 18,5 C 4,0 km/h
01.07.2009 04:00 18,0 C 91 % 1017,6 hPa 0,0 l/m 0,0 km/h N 16,5 C 18,0 C 0,8 km/h
01.07.2009 05:00 17,8 C 92 % 1017,8 hPa 0,0 l/m 0,0 km/h N 16,4 C 17,8 C 1,2 km/h
01.07.2009 06:00 18,5 C 92 % 1017,9 hPa 0,6 l/m 0,3 km/h N 17,2 C 18,5 C 2,0 km/h
01.07.2009 07:00 19,8 C 89 % 1018,0 hPa 0,3 l/m 0,9 km/h N-NW 18,0 C 19,8 C 4,4 km/h
01.07.2009 08:00 20,6 C 84 % 1018,2 hPa 0,0 l/m 0,3 km/h N 17,8 C 20,6 C 3,2 km/h
01.07.2009 09:00 21,6 C 80 % 1018,4 hPa 0,0 l/m 0,5 km/h SO 18,0 C 21,6 C 4,4 km/h
01.07.2009 10:00 23,4 C 75 % 1018,6 hPa 0,0 l/m 1,8 km/h N-NW 18,7 C 23,4 C 8,0 km/h
01.07.2009 11:00 24,7 C 70 % 1018,5 hPa 0,0 l/m 3,1 km/h N-NO 18,8 C 24,7 C 9,3 km/h
01.07.2009 12:00 25,8 C 66 % 1018,4 hPa 0,0 l/m 2,6 km/h N-NW 19,1 C 25,8 C 9,3 km/h
01.07.2009 13:00 26,5 C 65 % 1017,9 hPa 0,0 l/m 2,3 km/h N-NO 19,3 C 26,5 C 7,6 km/h
01.07.2009 14:00 27,3 C 63 % 1017,2 hPa 0,0 l/m 1,7 km/h N-NO 19,5 C 27,3 C 6,4 km/h
01.07.2009 15:00 27,9 C 59 % 1016,5 hPa 0,0 l/m 1,3 km/h NO 19,1 C 27,9 C 6,0 km/h
01.07.2009 16:00 27,8 C 61 % 1016,4 hPa 0,0 l/m 1,5 km/h N-NO 19,6 C 27,8 C 6,8 km/h
01.07.2009 17:00 28,0 C 58 % 1016,1 hPa 0,0 l/m 2,2 km/h N-NW 18,8 C 28,0 C 6,8 km/h
01.07.2009 18:00 24,2 C 67 % 1016,5 hPa 0,0 l/m 2,3 km/h S-SW 17,6 C 24,2 C 11,6 km/h
01.07.2009 19:00 20,8 C 82 % 1017,0 hPa 0,0 l/m 1,7 km/h N-NW 17,6 C 20,8 C 7,2 km/h
01.07.2009 20:00 20,3 C 81 % 1017,6 hPa 0,0 l/m 1,9 km/h S 16,8 C 20,3 C 9,6 km/h
01.07.2009 21:00 19,8 C 84 % 1017,6 hPa 0,0 l/m 0,9 km/h N 16,9 C 19,8 C 7,6 km/h
01.07.2009 22:00 19,6 C 84 % 1017,8 hPa 0,0 l/m 0,6 km/h N 16,8 C 19,6 C 6,4 km/h
01.07.2009 23:00 19,2 C 86 % 1017,9 hPa 0,0 l/m 1,0 km/h S-SW 16,7 C 19,2 C 6,4 km/h
02.07.2009 00:00 18,5 C 88 % 1017,7 hPa 0,0 l/m 0,3 km/h N 16,4 C 18,5 C 2,4 km/h
02.07.2009 01:00 17,8 C 90 % 1017,4 hPa 0,0 l/m 0,0 km/h N 16,1 C 17,8 C 0,8 km/h
02.07.2009 02:00 17,8 C 89 % 1017,3 hPa 0,0 l/m 0,3 km/h N 16,0 C 17,8 C 4,0 km/h
02.07.2009 03:00 17,8 C 89 % 1017,3 hPa 0,0 l/m 0,4 km/h W-SW 16,0 C 17,8 C 2,4 km/h
02.07.2009 04:00 17,7 C 88 % 1016,7 hPa 0,0 l/m 0,4 km/h N 15,6 C 17,7 C 2,4 km/h
02.07.2009 05:00 17,1 C 89 % 1017,0 hPa 0,0 l/m 0,0 km/h N 15,3 C 17,1 C 0,4 km/h
02.07.2009 06:00 18,5 C 86 % 1017,1 hPa 0,0 l/m 0,1 km/h N 16,1 C 18,5 C 2,0 km/h
02.07.2009 07:00 20,5 C 80 % 1017,1 hPa 0,0 l/m 0,1 km/h N 16,9 C 20,5 C 2,8 km/h
02.07.2009 08:00 21,8 C 77 % 1017,2 hPa 0,0 l/m 1,5 km/h N-NO 17,5 C 21,8 C 5,6 km/h
02.07.2009 09:00 22,8 C 73 % 1017,1 hPa 0,0 l/m 2,0 km/h N 17,7 C 22,8 C 6,8 km/h
02.07.2009 10:00 24,2 C 71 % 1016,8 hPa 0,0 l/m 2,6 km/h N-NO 18,5 C 24,2 C 7,6 km/h
02.07.2009 11:00 25,8 C 65 % 1016,5 hPa 0,0 l/m 1,6 km/h N-NO 18,7 C 25,8 C 6,0 km/h
02.07.2009 12:00 27,1 C 63 % 1015,9 hPa 0,0 l/m 1,6 km/h NO 19,4 C 27,1 C 5,6 km/h
02.07.2009 13:00 27,3 C 60 % 1015,0 hPa 0,0 l/m 1,1 km/h NW 18,7 C 27,3 C 5,2 km/h
02.07.2009 14:00 28,0 C 55 % 1014,1 hPa 0,0 l/m 0,8 km/h N 18,1 C 28,0 C 4,4 km/h
02.07.2009 15:00 27,8 C 54 % 1013,4 hPa 0,0 l/m 0,8 km/h S-SW 17,6 C 27,8 C 4,0 km/h
02.07.2009 16:00 29,2 C 45 % 1013,2 hPa 0,0 l/m 1,1 km/h NO 16,1 C 29,2 C 5,6 km/h
02.07.2009 17:00 26,9 C 55 % 1013,1 hPa 0,0 l/m 4,4 km/h NO 17,0 C 26,9 C 12,4 km/h
02.07.2009 18:00 24,6 C 59 % 1013,5 hPa 0,0 l/m 3,7 km/h NO 15,9 C 24,6 C 8,1 km/h
02.07.2009 19:00 24,1 C 61 % 1013,9 hPa 0,0 l/m 1,1 km/h N 16,2 C 24,1 C 4,4 km/h
02.07.2009 20:00 23,3 C 67 % 1014,4 hPa 0,0 l/m 0,9 km/h O-SO 16,7 C 23,3 C 3,6 km/h
02.07.2009 21:00 22,0 C 74 % 1014,7 hPa 0,0 l/m 2,0 km/h SW 17,1 C 22,0 C 8,0 km/h
02.07.2009 22:00 21,2 C 78 % 1014,3 hPa 0,0 l/m 0,5 km/h N 17,1 C 21,2 C 4,4 km/h
02.07.2009 23:00 20,4 C 80 % 1014,1 hPa 0,0 l/m 0,0 km/h N 16,8 C 20,4 C 1,2 km/h
03.07.2009 00:00 20,2 C 80 % 1013,7 hPa 0,0 l/m 0,4 km/h N 16,6 C 20,2 C 4,0 km/h
03.07.2009 01:00 19,5 C 82 % 1013,4 hPa 0,0 l/m 0,1 km/h N 16,2 C 19,5 C 1,6 km/h
03.07.2009 02:00 19,0 C 84 % 1013,2 hPa 0,0 l/m 0,4 km/h N 16,1 C 19,0 C 4,4 km/h
03.07.2009 03:00 19,0 C 82 % 1012,8 hPa 0,0 l/m 0,3 km/h N 15,8 C 19,0 C 3,6 km/h
03.07.2009 04:00 18,9 C 83 % 1012,6 hPa 0,0 l/m 0,2 km/h N 15,8 C 18,9 C 2,8 km/h
03.07.2009 05:00 18,7 C 84 % 1012,7 hPa 0,0 l/m 0,2 km/h N 15,8 C 18,7 C 2,8 km/h
03.07.2009 06:00 19,4 C 81 % 1012,9 hPa 0,0 l/m 0,2 km/h N 16,0 C 19,4 C 2,8 km/h
03.07.2009 07:00 20,1 C 78 % 1013,0 hPa 0,0 l/m 0,8 km/h NW 16,2 C 20,1 C 4,4 km/h
03.07.2009 08:00 20,6 C 77 % 1013,1 hPa 0,0 l/m 1,3 km/h NW 16,3 C 20,6 C 6,4 km/h
03.07.2009 09:00 21,7 C 75 % 1013,1 hPa 0,0 l/m 3,3 km/h NW 17,0 C 21,7 C 10,1 km/h
03.07.2009 10:00 22,8 C 72 % 1013,0 hPa 0,0 l/m 4,1 km/h NW 17,5 C 22,8 C 11,3 km/h
03.07.2009 11:00 24,0 C 69 % 1012,7 hPa 0,0 l/m 3,4 km/h N-NW 17,9 C 24,0 C 10,1 km/h
03.07.2009 12:00 23,8 C 68 % 1012,4 hPa 0,0 l/m 3,0 km/h NW 17,5 C 23,8 C 9,3 km/h
03.07.2009 13:00 23,3 C 68 % 1011,8 hPa 0,0 l/m 1,8 km/h S-SW 17,1 C 23,3 C 9,3 km/h
03.07.2009 14:00 25,8 C 65 % 1010,9 hPa 0,0 l/m 2,8 km/h N-NO 18,6 C 25,8 C 8,0 km/h
03.07.2009 15:00 26,7 C 58 % 1010,3 hPa 0,0 l/m 4,0 km/h NW 17,7 C 26,7 C 10,1 km/h
03.07.2009 16:00 26,6 C 57 % 1009,9 hPa 0,0 l/m 3,1 km/h N-NW 17,3 C 26,6 C 8,8 km/h
03.07.2009 17:00 25,3 C 61 % 1010,1 hPa 0,0 l/m 2,9 km/h NO 17,2 C 25,3 C 8,4 km/h
03.07.2009 18:00 22,8 C 70 % 1010,6 hPa 0,0 l/m 5,8 km/h NW 17,0 C 22,7 C 17,7 km/h
03.07.2009 19:00 20,4 C 79 % 1010,3 hPa 0,0 l/m 5,3 km/h NW 16,6 C 20,4 C 10,9 km/h
03.07.2009 20:00 19,8 C 82 % 1010,6 hPa 0,0 l/m 2,9 km/h N-NW 16,6 C 19,8 C 7,3 km/h
03.07.2009 21:00 19,8 C 80 % 1011,1 hPa 0,0 l/m 0,4 km/h N 16,2 C 19,8 C 2,0 km/h
03.07.2009 22:00 20,4 C 76 % 1011,3 hPa 0,0 l/m 0,9 km/h NW 16,0 C 20,4 C 6,0 km/h
03.07.2009 23:00 20,8 C 77 % 1011,0 hPa 0,0 l/m 2,5 km/h S-SO 16,6 C 20,8 C 12,5 km/h
04.07.2009 00:00 20,8 C 76 % 1010,7 hPa 0,3 l/m 2,8 km/h W-SW 16,4 C 20,8 C 12,1 km/h
04.07.2009 01:00 20,6 C 75 % 1010,6 hPa 0,0 l/m 2,4 km/h W 16,0 C 20,6 C 14,9 km/h
04.07.2009 02:00 20,5 C 74 % 1010,2 hPa 0,0 l/m 1,9 km/h S 15,8 C 20,5 C 12,1 km/h
04.07.2009 03:00 20,3 C 76 % 1009,9 hPa 0,0 l/m 0,9 km/h N 15,9 C 20,3 C 7,2 km/h
04.07.2009 04:00 19,8 C 79 % 1009,7 hPa 0,0 l/m 0,6 km/h NW 16,0 C 19,8 C 3,6 km/h
04.07.2009 05:00 18,9 C 83 % 1009,7 hPa 0,0 l/m 0,0 km/h N 16,0 C 18,9 C 2,8 km/h
04.07.2009 06:00 20,2 C 80 % 1009,9 hPa 0,0 l/m 0,9 km/h NW 16,6 C 20,2 C 8,4 km/h
04.07.2009 07:00 21,4 C 77 % 1010,1 hPa 0,0 l/m 2,9 km/h S-SW 17,1 C 21,4 C 12,9 km/h
04.07.2009 08:00 22,0 C 76 % 1010,3 hPa 0,0 l/m 4,7 km/h S-SO 17,6 C 22,0 C 16,9 km/h
04.07.2009 09:00 22,6 C 74 % 1010,4 hPa 0,0 l/m 5,7 km/h N-NW 17,6 C 22,5 C 18,1 km/h
04.07.2009 10:00 23,6 C 71 % 1010,2 hPa 0,0 l/m 5,8 km/h NW 18,1 C 23,6 C 17,7 km/h
04.07.2009 11:00 24,9 C 68 % 1010,2 hPa 0,0 l/m 4,2 km/h N-NW 18,5 C 24,9 C 14,5 km/h
04.07.2009 12:00 25,6 C 65 % 1009,9 hPa 0,0 l/m 5,8 km/h N-NW 18,4 C 25,6 C 19,7 km/h
04.07.2009 13:00 26,5 C 60 % 1009,2 hPa 0,0 l/m 4,8 km/h W-NW 18,0 C 26,5 C 13,7 km/h
04.07.2009 14:00 27,3 C 56 % 1008,6 hPa 0,0 l/m 4,6 km/h O-NO 17,8 C 27,3 C 16,9 km/h
04.07.2009 15:00 27,3 C 56 % 1008,0 hPa 0,0 l/m 4,7 km/h NO 17,7 C 27,3 C 15,7 km/h
04.07.2009 16:00 27,0 C 58 % 1007,7 hPa 0,0 l/m 4,7 km/h NW 17,9 C 27,0 C 15,7 km/h
04.07.2009 17:00 26,8 C 58 % 1007,3 hPa 0,0 l/m 4,0 km/h W-NW 17,7 C 26,8 C 15,7 km/h
04.07.2009 18:00 26,0 C 59 % 1007,1 hPa 0,0 l/m 4,0 km/h S-SO 17,2 C 26,0 C 13,7 km/h
04.07.2009 19:00 25,5 C 63 % 1007,5 hPa 0,0 l/m 2,6 km/h N-NW 17,9 C 25,5 C 7,6 km/h
04.07.2009 20:00 24,5 C 65 % 1008,0 hPa 0,0 l/m 4,8 km/h NW 17,5 C 24,5 C 11,7 km/h
04.07.2009 21:00 23,0 C 65 % 1008,6 hPa 0,0 l/m 2,9 km/h S 15,9 C 23,0 C 11,7 km/h
04.07.2009 22:00 22,1 C 64 % 1008,9 hPa 0,0 l/m 2,4 km/h SW 15,0 C 22,1 C 8,1 km/h
04.07.2009 23:00 21,8 C 69 % 1009,1 hPa 0,0 l/m 1,9 km/h SW 15,8 C 21,8 C 10,5 km/h
05.07.2009 00:00 21,5 C 71 % 1009,3 hPa 0,0 l/m 1,5 km/h NW 16,1 C 21,5 C 7,6 km/h
05.07.2009 01:00 21,2 C 71 % 1009,3 hPa 0,0 l/m 1,8 km/h SW 15,8 C 21,2 C 11,3 km/h
05.07.2009 02:00 21,3 C 72 % 1008,8 hPa 0,0 l/m 1,7 km/h N-NW 15,9 C 21,3 C 6,8 km/h
05.07.2009 03:00 20,8 C 75 % 1008,5 hPa 0,0 l/m 0,9 km/h N 16,3 C 20,8 C 4,8 km/h
05.07.2009 04:00 20,1 C 77 % 1008,4 hPa 0,0 l/m 0,5 km/h N 16,0 C 20,1 C 3,6 km/h
05.07.2009 05:00 20,0 C 76 % 1008,5 hPa 0,0 l/m 0,2 km/h NW 15,6 C 20,0 C 2,4 km/h
05.07.2009 06:00 20,6 C 75 % 1008,6 hPa 0,0 l/m 2,4 km/h NW 16,1 C 20,6 C 6,8 km/h
05.07.2009 07:00 21,1 C 76 % 1008,8 hPa 0,0 l/m 4,3 km/h W-NW 16,6 C 21,1 C 9,7 km/h
05.07.2009 08:00 21,8 C 74 % 1009,1 hPa 0,0 l/m 3,5 km/h NW 16,8 C 21,8 C 9,3 km/h
05.07.2009 09:00 22,9 C 69 % 1009,3 hPa 0,0 l/m 5,2 km/h N-NW 16,8 C 22,9 C 13,3 km/h
05.07.2009 10:00 22,9 C 71 % 1009,3 hPa 0,0 l/m 3,3 km/h NW 17,2 C 22,9 C 12,1 km/h
05.07.2009 11:00 23,9 C 70 % 1009,3 hPa 0,0 l/m 3,9 km/h N-NW 17,9 C 23,9 C 13,7 km/h
05.07.2009 12:00 25,4 C 63 % 1008,6 hPa 0,0 l/m 3,4 km/h S-SO 17,7 C 25,4 C 10,5 km/h
05.07.2009 13:00 25,5 C 62 % 1008,3 hPa 0,0 l/m 4,2 km/h W 17,7 C 25,5 C 13,3 km/h
05.07.2009 14:00 26,0 C 62 % 1008,0 hPa 0,0 l/m 4,7 km/h S-SO 18,1 C 26,0 C 15,7 km/h
05.07.2009 15:00 26,2 C 60 % 1007,3 hPa 0,0 l/m 3,3 km/h NW 17,7 C 26,2 C 9,7 km/h
05.07.2009 16:00 25,9 C 58 % 1007,3 hPa 0,0 l/m 3,9 km/h NW 17,0 C 25,9 C 15,3 km/h
05.07.2009 17:00 25,6 C 60 % 1006,8 hPa 0,0 l/m 2,9 km/h NW 17,2 C 25,6 C 9,3 km/h
05.07.2009 18:00 24,8 C 60 % 1007,0 hPa 0,0 l/m 2,5 km/h NW 16,4 C 24,8 C 10,1 km/h
05.07.2009 19:00 24,1 C 63 % 1007,0 hPa 0,0 l/m 0,4 km/h N 16,6 C 24,1 C 4,0 km/h
05.07.2009 20:00 23,4 C 67 % 1006,8 hPa 0,0 l/m 1,0 km/h O-SO 16,8 C 23,4 C 4,4 km/h
05.07.2009 21:00 22,5 C 67 % 1007,0 hPa 0,0 l/m 1,6 km/h S 16,0 C 22,5 C 10,9 km/h
05.07.2009 22:00 21,2 C 72 % 1007,4 hPa 0,0 l/m 0,9 km/h N 15,8 C 21,2 C 7,2 km/h
05.07.2009 23:00 20,7 C 72 % 1007,4 hPa 0,0 l/m 0,4 km/h N 15,5 C 20,7 C 4,0 km/h
Min-Datum _ 02.07.09 02.07.09 05.07.09 - 29.06.09 - 04.07.09 02.07.09 29.06.09
_ Min-Zeit 05:30 16:00 17:15 - 00:00 - 22:30 05:15 00:00
Minimum _ 16,8 C 42 % 1006,7 hPa - 0,0 km/h - 14,7 C 16,9 C 0,0 km/h
Max-Datum _ 02.07.09 29.06.09 01.07.09 01.07.09 03.07.09 - 01.07.09 02.07.09 04.07.09
_ Max-Zeit 16:30 03:45 10:15 02:15 18:15 - 16:00 16:30 14:45
Maximum _ 30,1 C 93 % 1018,6 hPa 7,7 l/m 7,9 km/h
NW
- 20,7 C 29,6 C 22,5 km/h
S-SW
Durchschnitt _ 22,2 C 74 % 1013,4 hPa #11,8 l/m 2,0 km/h NW 17,2 C 22,2 C 7,3 km/h